Pampa del Indio, Argentina
Current Conditions -  °F | °C
As of 5:00 PM on Tuesday 21 Oct 2014 (Local Time) from SARF Reporting Station
Clear Clear  
Wind Chill: 32°   Ceiling: Unl
Heat Index: 32°   Visibility: 6mi
Dew Point: 10°   Wind: 13mph
Humidity: 26%   Direction: 160°SSE
Pressure: 29.97"   Gusts: NA
Location:  26.03°S, 59.92°W
Report Text: SARF 212000Z 16011KT 9000 NSC 32/10 Q1015
Loading
Personal Weather Stations






























Interactive Weather Map
Tropical Storm Tracking
New forecast layout! Learn more

10-Day Weather Forecast

Advertisements
Track Severe Weather on mobile